createdAt,value
2022-11-17T00:00:41.805Z,98469.56
2022-11-17T00:03:12.779Z,98462.69
2022-11-17T00:05:39.198Z,98457.25
2022-11-17T00:08:05.953Z,98463.75
2022-11-17T00:10:32.873Z,98450.47
2022-11-17T00:13:17.947Z,98449.53
2022-11-17T00:15:45.333Z,98443.81
2022-11-17T00:18:30.400Z,98443.09
2022-11-17T00:21:16.276Z,98427.63
2022-11-17T00:23:49.556Z,98429.13
2022-11-17T00:26:28.102Z,98413.59
2022-11-17T00:28:57.300Z,98421.09
2022-11-17T00:31:44.275Z,98404.09
2022-11-17T00:34:16.253Z,98413.06
2022-11-17T00:36:48.192Z,98418.06
2022-11-17T00:39:16.333Z,98403.78
2022-11-17T00:41:42.875Z,98393.78
2022-11-17T00:44:10.048Z,98388.44
2022-11-17T00:46:38.173Z,98390.22
2022-11-17T00:49:06.412Z,98381.34
2022-11-17T00:51:33.774Z,98376.47
2022-11-17T00:54:01.036Z,98380.63
2022-11-17T00:56:27.814Z,98364.88
2022-11-17T00:58:54.550Z,98365.00
2022-11-17T01:01:21.381Z,98365.09
2022-11-17T01:03:48.709Z,98362.47
2022-11-17T01:06:17.768Z,98364.88
2022-11-17T01:08:44.821Z,98377.91
2022-11-17T01:11:15.128Z,98366.66
2022-11-17T01:13:42.778Z,98356.34
2022-11-17T01:16:12.083Z,98358.84
2022-11-17T01:18:39.599Z,98355.19
2022-11-17T01:21:28.558Z,98350.28
2022-11-17T01:23:56.799Z,98356.97
2022-11-17T01:26:30.501Z,98342.25
2022-11-17T01:28:58.233Z,98328.28
2022-11-17T01:31:31.014Z,98317.97
2022-11-17T01:33:57.889Z,98310.13
2022-11-17T01:36:27.326Z,98309.47
2022-11-17T01:38:53.890Z,98290.94
2022-11-17T01:41:24.081Z,98289.59
2022-11-17T01:43:51.908Z,98284.91
2022-11-17T01:46:30.602Z,98280.75
2022-11-17T01:49:04.999Z,98271.78
2022-11-17T01:51:33.546Z,98269.50
2022-11-17T01:54:00.914Z,98269.28
2022-11-17T01:56:38.736Z,98260.09
2022-11-17T01:59:23.149Z,98253.09
2022-11-17T02:02:09.939Z,98250.09
2022-11-17T02:05:23.313Z,98244.66
2022-11-17T02:08:11.605Z,98239.34
2022-11-17T02:11:00.894Z,98246.84
2022-11-17T02:13:49.015Z,98235.59
2022-11-17T02:16:35.675Z,98234.75
2022-11-17T02:19:02.230Z,98232.91
2022-11-17T02:22:21.612Z,98226.66
2022-11-17T02:25:26.810Z,98213.97
2022-11-17T02:28:10.913Z,98217.25
2022-11-17T02:31:08.413Z,98208.38
2022-11-17T02:33:40.259Z,98200.22
2022-11-17T02:36:20.637Z,98204.38
2022-11-17T02:38:57.754Z,98198.22
2022-11-17T02:41:37.666Z,98183.50
2022-11-17T02:44:30.334Z,98177.94
2022-11-17T02:47:08.444Z,98176.28
2022-11-17T02:49:43.327Z,98164.41
2022-11-17T02:52:10.609Z,98169.75
2022-11-17T02:54:37.033Z,98170.59
2022-11-17T02:57:03.783Z,98161.72
2022-11-17T02:59:37.323Z,98164.66
2022-11-17T03:02:39.282Z,98153.28
2022-11-17T03:05:11.865Z,98136.06
2022-11-17T03:08:09.107Z,98134.06
2022-11-17T03:10:48.295Z,98138.44
2022-11-17T03:13:29.520Z,98145.72
2022-11-17T03:16:09.186Z,98159.47
2022-11-17T03:19:01.955Z,98146.09
2022-11-17T03:21:40.574Z,98138.50
2022-11-17T03:24:30.273Z,98143.97
2022-11-17T03:27:03.854Z,98143.72
2022-11-17T03:29:33.957Z,98136.13
2022-11-17T03:32:04.602Z,98121.19
2022-11-17T03:34:35.977Z,98136.59
2022-11-17T03:37:06.244Z,98146.09
2022-11-17T03:39:35.840Z,98158.34
2022-11-17T03:42:15.148Z,98168.91
2022-11-17T03:44:47.435Z,98165.22
2022-11-17T03:47:18.154Z,98164.13
2022-11-17T03:49:49.439Z,98174.25
2022-11-17T03:52:16.317Z,98145.03
2022-11-17T03:54:43.018Z,98174.25
2022-11-17T03:57:29.183Z,98155.84
2022-11-17T04:00:07.485Z,98186.34
2022-11-17T04:02:55.209Z,98177.44
2022-11-17T04:05:22.009Z,98170.78
2022-11-17T04:07:49.002Z,98166.50
2022-11-17T04:10:18.494Z,98162.22
2022-11-17T04:13:04.631Z,98156.66
2022-11-17T04:15:50.212Z,98160.69
2022-11-17T04:18:17.183Z,98163.53
2022-11-17T04:20:43.727Z,98159.38
2022-11-17T04:23:15.059Z,98165.88
2022-11-17T04:26:05.776Z,98173.78
2022-11-17T04:28:37.233Z,98168.47
2022-11-17T04:31:09.672Z,98161.31
2022-11-17T04:33:38.625Z,98173.31
2022-11-17T04:36:06.044Z,98169.53
2022-11-17T04:38:33.627Z,98180.41
2022-11-17T04:41:24.979Z,98175.53
2022-11-17T04:43:52.506Z,98169.84
2022-11-17T04:46:20.600Z,98168.09
2022-11-17T04:48:48.184Z,98174.47
2022-11-17T04:51:16.856Z,98173.13
2022-11-17T04:53:44.645Z,98162.81
2022-11-17T04:56:12.235Z,98163.19
2022-11-17T04:58:39.379Z,98154.84
2022-11-17T05:01:17.561Z,98152.88
2022-11-17T05:04:01.451Z,98151.53
2022-11-17T05:06:34.686Z,98152.09
2022-11-17T05:09:07.138Z,98151.09
2022-11-17T05:11:52.844Z,98147.16
2022-11-17T05:14:21.687Z,98145.63
2022-11-17T05:17:10.825Z,98151.75
2022-11-17T05:19:39.998Z,98143.63
2022-11-17T05:22:28.384Z,98142.28
2022-11-17T05:24:55.601Z,98145.09
2022-11-17T05:27:23.241Z,98143.22
2022-11-17T05:29:50.306Z,98142.81
2022-11-17T05:32:16.840Z,98132.19
2022-11-17T05:34:43.931Z,98121.72
2022-11-17T05:37:10.388Z,98122.47
2022-11-17T05:39:37.133Z,98137.09
2022-11-17T05:42:04.014Z,98137.56
2022-11-17T05:44:30.665Z,98131.63
2022-11-17T05:46:57.689Z,98129.03
2022-11-17T05:49:24.197Z,98121.69
2022-11-17T05:51:52.842Z,98130.00
2022-11-17T05:54:20.779Z,98121.34
2022-11-17T05:57:00.718Z,98127.06
2022-11-17T05:59:48.530Z,98126.47
2022-11-17T06:02:23.438Z,98124.00
2022-11-17T06:04:51.713Z,98124.94
2022-11-17T06:07:19.422Z,98106.34
2022-11-17T06:09:46.552Z,98107.06
2022-11-17T06:12:13.594Z,98089.97
2022-11-17T06:14:40.043Z,98119.63
2022-11-17T06:17:13.459Z,98133.28
2022-11-17T06:19:46.713Z,98128.41
2022-11-17T06:22:13.784Z,98118.56
2022-11-17T06:24:43.285Z,98139.91
2022-11-17T06:27:13.784Z,98127.31
2022-11-17T06:29:44.326Z,98146.69
2022-11-17T06:32:14.601Z,98154.16
2022-11-17T06:34:43.606Z,98146.09
2022-11-17T06:37:11.340Z,98139.66
2022-11-17T06:39:37.848Z,98147.03
2022-11-17T06:42:04.501Z,98156.03
2022-11-17T06:44:31.076Z,98161.38
2022-11-17T06:46:57.713Z,98187.34
2022-11-17T06:49:24.125Z,98163.97
2022-11-17T06:51:50.959Z,98160.31
2022-11-17T06:54:17.436Z,98150.59
2022-11-17T06:56:45.406Z,98154.63
2022-11-17T06:59:11.885Z,98149.41
2022-11-17T07:01:38.753Z,98146.66
2022-11-17T07:04:05.682Z,98166.97
2022-11-17T07:06:36.681Z,98158.31
2022-11-17T07:09:04.648Z,98171.13
2022-11-17T07:11:35.430Z,98152.75
2022-11-17T07:14:02.125Z,98159.28
2022-11-17T07:16:30.727Z,98146.13
2022-11-17T07:18:59.188Z,98143.00
2022-11-17T07:21:26.133Z,98160.94
2022-11-17T07:23:52.654Z,98150.84
2022-11-17T07:26:19.976Z,98145.03
2022-11-17T07:28:46.781Z,98149.06
2022-11-17T07:31:13.418Z,98148.56
2022-11-17T07:33:39.904Z,98148.25
2022-11-17T07:36:09.967Z,98156.31
2022-11-17T07:38:39.194Z,98163.91
2022-11-17T07:41:07.415Z,98156.09
2022-11-17T07:43:35.480Z,98149.31
2022-11-17T07:46:12.605Z,98151.09
2022-11-17T07:48:40.076Z,98154.19
2022-11-17T07:51:06.789Z,98152.97
2022-11-17T07:53:35.344Z,98149.78
2022-11-17T07:56:09.797Z,98148.81
2022-11-17T07:58:37.550Z,98146.69
2022-11-17T08:01:09.651Z,98147.41
2022-11-17T08:03:36.463Z,98152.97
2022-11-17T08:06:04.336Z,98155.13
2022-11-17T08:08:31.188Z,98160.47
2022-11-17T08:11:07.139Z,98165.69
2022-11-17T08:13:34.332Z,98163.41
2022-11-17T08:16:01.056Z,98161.50
2022-11-17T08:18:29.284Z,98170.28
2022-11-17T08:21:08.097Z,98168.50
2022-11-17T08:23:35.477Z,98172.69
2022-11-17T08:26:03.419Z,98181.00
2022-11-17T08:28:30.555Z,98167.94
2022-11-17T08:30:57.088Z,98175.78
2022-11-17T08:33:23.840Z,98175.53
2022-11-17T08:35:50.423Z,98168.53
2022-11-17T08:38:17.050Z,98170.44
2022-11-17T08:40:43.872Z,98176.72
2022-11-17T08:43:10.394Z,98169.97
2022-11-17T08:45:36.934Z,98171.03
2022-11-17T08:48:04.555Z,98165.09
2022-11-17T08:50:31.131Z,98171.75
2022-11-17T08:52:57.666Z,98172.09
2022-11-17T08:55:26.164Z,98165.94
2022-11-17T08:57:52.815Z,98163.09
2022-11-17T09:00:20.697Z,98172.94
2022-11-17T09:02:47.705Z,98168.53
2022-11-17T09:05:14.299Z,98177.09
2022-11-17T09:07:40.852Z,98201.31
2022-11-17T09:10:10.798Z,98207.47
2022-11-17T09:12:37.659Z,98201.19
2022-11-17T09:15:05.521Z,98202.38
2022-11-17T09:17:32.404Z,98200.59
2022-11-17T09:19:58.898Z,98205.22
2022-11-17T09:22:25.629Z,98205.94
2022-11-17T09:24:52.429Z,98205.81
2022-11-17T09:27:19.168Z,98218.88
2022-11-17T09:29:45.736Z,98213.03
2022-11-17T09:32:13.437Z,98221.97
2022-11-17T09:34:40.001Z,98232.41
2022-11-17T09:37:06.525Z,98224.81
2022-11-17T09:39:32.954Z,98232.66
2022-11-17T09:41:59.756Z,98233.59
2022-11-17T09:44:39.796Z,98253.78
2022-11-17T09:47:32.804Z,98257.94
2022-11-17T09:50:30.148Z,98256.38
2022-11-17T09:53:05.465Z,98274.53
2022-11-17T09:55:42.633Z,98267.88
2022-11-17T09:58:29.861Z,98269.81
2022-11-17T10:00:56.798Z,98273.72
2022-11-17T10:03:30.670Z,98261.59
2022-11-17T10:05:59.879Z,98266.94
2022-11-17T10:09:02.763Z,98270.03
2022-11-17T10:11:32.024Z,98270.75
2022-11-17T10:14:15.148Z,98278.59
2022-11-17T10:16:54.203Z,98274.09
2022-11-17T10:19:25.343Z,98283.59
2022-11-17T10:22:02.495Z,98268.53
2022-11-17T10:24:48.102Z,98266.47
2022-11-17T10:27:24.997Z,98270.28
2022-11-17T10:30:09.832Z,98272.16
2022-11-17T10:32:49.775Z,98271.00
2022-11-17T10:35:34.945Z,98264.13
2022-11-17T10:38:20.884Z,98261.97
2022-11-17T10:40:52.147Z,98252.84
2022-11-17T10:43:24.813Z,98260.09
2022-11-17T10:45:55.268Z,98275.91
2022-11-17T10:48:31.882Z,98272.19
2022-11-17T10:51:01.211Z,98268.41
2022-11-17T10:53:36.864Z,98273.28
2022-11-17T10:56:09.468Z,98269.13
2022-11-17T10:59:16.626Z,98286.09
2022-11-17T11:01:46.345Z,98279.91
2022-11-17T11:04:33.641Z,98273.28
2022-11-17T11:07:06.415Z,98268.06
2022-11-17T11:09:35.263Z,98269.13
2022-11-17T11:12:05.591Z,98267.78
2022-11-17T11:14:44.240Z,98271.75
2022-11-17T11:17:13.490Z,98264.47
2022-11-17T11:19:42.641Z,98263.47
2022-11-17T11:22:43.448Z,98259.53
2022-11-17T11:25:37.502Z,98258.09
2022-11-17T11:28:19.260Z,98265.94
2022-11-17T11:31:06.495Z,98261.44
2022-11-17T11:33:45.366Z,98257.16
2022-11-17T11:36:34.057Z,98262.97
2022-11-17T11:39:13.314Z,98262.13
2022-11-17T11:42:09.252Z,98269.75
2022-11-17T11:45:06.282Z,98266.19
2022-11-17T11:47:45.112Z,98271.16
2022-11-17T11:50:53.794Z,98274.50
2022-11-17T11:53:44.277Z,98280.31
2022-11-17T11:56:10.964Z,98261.41
2022-11-17T11:58:44.244Z,98259.03
2022-11-17T12:01:12.882Z,98266.84
2022-11-17T12:03:57.311Z,98264.22
2022-11-17T12:06:42.420Z,98260.47
2022-11-17T12:09:40.463Z,98270.66
2022-11-17T12:12:17.003Z,98264.59
2022-11-17T12:15:20.862Z,98279.31
2022-11-17T12:18:03.817Z,98264.47
2022-11-17T12:20:33.385Z,98283.41
2022-11-17T12:23:18.330Z,98272.94
2022-11-17T12:25:53.297Z,98274.97
2022-11-17T12:28:26.761Z,98277.84
2022-11-17T12:30:55.812Z,98281.88
2022-11-17T12:33:23.976Z,98269.75
2022-11-17T12:36:30.530Z,98263.44
2022-11-17T12:39:02.424Z,98270.09
2022-11-17T12:41:47.256Z,98269.03
2022-11-17T12:44:32.102Z,98265.22
2022-11-17T12:47:09.780Z,98265.00
2022-11-17T12:49:51.754Z,98256.19
2022-11-17T12:52:34.851Z,98243.00
2022-11-17T12:55:25.463Z,98250.97
2022-11-17T12:57:56.374Z,98247.97
2022-11-17T13:00:24.472Z,98264.13
2022-11-17T13:02:58.998Z,98248.22
2022-11-17T13:05:28.225Z,98255.94
2022-11-17T13:08:11.446Z,98260.94
2022-11-17T13:10:38.144Z,98260.22
2022-11-17T13:13:20.416Z,98271.16
2022-11-17T13:16:05.691Z,98279.13
2022-11-17T13:18:36.318Z,98291.47
2022-11-17T13:21:04.845Z,98293.63
2022-11-17T13:23:33.440Z,98299.69
2022-11-17T13:26:38.023Z,98300.16
2022-11-17T13:29:12.480Z,98296.72
2022-11-17T13:31:39.343Z,98303.25
2022-11-17T13:34:21.067Z,98310.97
2022-11-17T13:36:55.972Z,98313.81
2022-11-17T13:39:27.047Z,98307.28
2022-11-17T13:41:55.555Z,98312.19
2022-11-17T13:44:28.399Z,98318.22
2022-11-17T13:46:55.992Z,98344.25
2022-11-17T13:49:36.012Z,98350.63
2022-11-17T13:52:35.269Z,98353.91
2022-11-17T13:55:13.966Z,98316.50
2022-11-17T13:57:40.459Z,98291.16
2022-11-17T14:00:16.675Z,98297.09
2022-11-17T14:02:57.767Z,98273.94
2022-11-17T14:05:31.343Z,98295.78
2022-11-17T14:08:10.513Z,98308.22
2022-11-17T14:10:38.664Z,98350.81
2022-11-17T14:13:05.039Z,98347.25
2022-11-17T14:15:42.125Z,98360.81
2022-11-17T14:18:26.554Z,98364.06
2022-11-17T14:21:22.466Z,98372.19
2022-11-17T14:23:49.333Z,98371.16
2022-11-17T14:26:22.106Z,98375.31
2022-11-17T14:28:50.668Z,98384.50
2022-11-17T14:31:17.604Z,98390.47
2022-11-17T14:33:45.191Z,98400.09
2022-11-17T14:36:14.704Z,98395.41
2022-11-17T14:38:41.195Z,98395.50
2022-11-17T14:41:08.503Z,98386.75
2022-11-17T14:43:35.068Z,98388.72
2022-11-17T14:46:03.631Z,98382.47
2022-11-17T14:48:30.092Z,98379.97
2022-11-17T14:50:58.906Z,98375.31
2022-11-17T14:53:26.060Z,98372.28
2022-11-17T14:55:53.231Z,98375.31
2022-11-17T14:58:20.418Z,98378.66
2022-11-17T15:00:47.024Z,98376.66
2022-11-17T15:03:13.684Z,98361.75
2022-11-17T15:05:45.566Z,98352.06
2022-11-17T15:08:12.433Z,98358.41
2022-11-17T15:10:43.954Z,98365.81
2022-11-17T15:13:10.740Z,98363.22
2022-11-17T15:15:37.243Z,98363.00
2022-11-17T15:18:03.879Z,98356.03
2022-11-17T15:20:31.270Z,98344.25
2022-11-17T15:23:02.929Z,98342.53
2022-11-17T15:25:30.590Z,98351.94
2022-11-17T15:27:57.658Z,98337.66
2022-11-17T15:30:24.520Z,98341.72
2022-11-17T15:32:51.342Z,98345.16
2022-11-17T15:35:17.942Z,98355.06
2022-11-17T15:37:44.448Z,98366.44
2022-11-17T15:40:16.387Z,98370.72
2022-11-17T15:42:46.142Z,98375.72
2022-11-17T15:45:12.590Z,98383.53
2022-11-17T15:47:39.077Z,98384.59
2022-11-17T15:50:06.306Z,98380.72
2022-11-17T15:52:56.716Z,98366.63
2022-11-17T15:55:19.754Z,98368.09
2022-11-17T15:57:46.525Z,98363.53
2022-11-17T16:00:13.645Z,98379.47
2022-11-17T16:02:43.445Z,98394.78
2022-11-17T16:05:10.064Z,98392.91
2022-11-17T16:07:36.686Z,98390.28
2022-11-17T16:10:03.608Z,98404.25
2022-11-17T16:12:30.086Z,98401.44
2022-11-17T16:14:56.619Z,98400.41
2022-11-17T16:17:23.129Z,98395.50
2022-11-17T16:19:49.858Z,98389.88
2022-11-17T16:22:16.465Z,98386.75
2022-11-17T16:24:43.322Z,98393.72
2022-11-17T16:27:13.452Z,98389.06
2022-11-17T16:29:40.141Z,98384.34
2022-11-17T16:32:06.995Z,98376.09
2022-11-17T16:34:33.462Z,98382.88
2022-11-17T16:37:00.164Z,98382.53
2022-11-17T16:39:26.919Z,98385.97
2022-11-17T16:41:55.008Z,98380.78
2022-11-17T16:44:21.568Z,98383.47
2022-11-17T16:46:49.917Z,98377.84
2022-11-17T16:49:19.071Z,98388.81
2022-11-17T16:51:49.100Z,98393.88
2022-11-17T16:54:16.681Z,98380.66
2022-11-17T16:56:44.037Z,98371.91
2022-11-17T16:59:11.547Z,98370.06
2022-11-17T17:01:38.629Z,98377.13
2022-11-17T17:04:07.733Z,98368.59
2022-11-17T17:06:35.939Z,98373.06
2022-11-17T17:09:05.359Z,98371.81
2022-11-17T17:11:33.613Z,98374.13
2022-11-17T17:14:03.239Z,98382.78
2022-11-17T17:16:31.308Z,98376.28
2022-11-17T17:19:00.403Z,98372.75
2022-11-17T17:21:28.750Z,98367.66
2022-11-17T17:23:55.566Z,98359.22
2022-11-17T17:26:24.014Z,98365.03
2022-11-17T17:28:54.516Z,98369.75
2022-11-17T17:31:22.234Z,98375.88
2022-11-17T17:33:51.044Z,98379.44
2022-11-17T17:36:21.148Z,98383.19
2022-11-17T17:38:53.581Z,98378.06
2022-11-17T17:41:23.148Z,98383.38
2022-11-17T17:43:56.343Z,98390.69
2022-11-17T17:46:23.348Z,98396.28
2022-11-17T17:48:49.990Z,98402.75
2022-11-17T17:51:21.092Z,98416.28
2022-11-17T17:53:50.475Z,98416.91
2022-11-17T17:56:20.038Z,98426.88
2022-11-17T17:58:48.737Z,98423.16
2022-11-17T18:01:18.723Z,98428.06
2022-11-17T18:03:48.084Z,98416.16
2022-11-17T18:06:17.089Z,98421.81
2022-11-17T18:08:44.422Z,98421.72
2022-11-17T18:11:14.097Z,98422.03
2022-11-17T18:13:42.302Z,98414.97
2022-11-17T18:16:17.772Z,98426.84
2022-11-17T18:18:45.569Z,98426.13
2022-11-17T18:21:15.251Z,98415.16
2022-11-17T18:23:42.707Z,98415.69
2022-11-17T18:26:11.308Z,98412.34
2022-11-17T18:28:39.615Z,98413.81
2022-11-17T18:31:07.431Z,98415.34
2022-11-17T18:33:35.449Z,98416.94
2022-11-17T18:36:08.018Z,98420.38
2022-11-17T18:38:37.189Z,98417.13
2022-11-17T18:41:08.533Z,98407.03
2022-11-17T18:43:37.389Z,98418.06
2022-11-17T18:46:13.164Z,98419.63
2022-11-17T18:48:42.136Z,98412.34
2022-11-17T18:51:20.983Z,98422.88
2022-11-17T18:53:49.903Z,98423.38
2022-11-17T18:56:19.027Z,98417.47
2022-11-17T18:58:46.923Z,98412.69
2022-11-17T19:01:20.078Z,98406.13
2022-11-17T19:03:49.280Z,98413.81
2022-11-17T19:06:18.073Z,98412.69
2022-11-17T19:08:45.624Z,98410.00
2022-11-17T19:11:17.150Z,98395.19
2022-11-17T19:13:44.662Z,98412.38
2022-11-17T19:16:17.252Z,98414.97
2022-11-17T19:18:45.550Z,98404.34
2022-11-17T19:21:35.270Z,98407.59
2022-11-17T19:24:04.211Z,98407.78
2022-11-17T19:26:33.252Z,98404.88
2022-11-17T19:29:05.377Z,98415.41
2022-11-17T19:31:33.723Z,98408.81
2022-11-17T19:34:00.321Z,98421.09
2022-11-17T19:36:33.827Z,98420.06
2022-11-17T19:39:02.223Z,98414.13
2022-11-17T19:41:35.298Z,98413.09
2022-11-17T19:44:04.341Z,98415.69
2022-11-17T19:46:31.401Z,98415.06
2022-11-17T19:48:58.446Z,98414.66
2022-11-17T19:51:30.736Z,98413.81
2022-11-17T19:54:06.022Z,98415.69
2022-11-17T19:56:32.851Z,98418.78
2022-11-17T19:58:59.604Z,98422.97
2022-11-17T20:01:28.388Z,98438.59
2022-11-17T20:03:55.872Z,98441.50
2022-11-17T20:06:27.063Z,98445.34
2022-11-17T20:08:54.711Z,98441.59
2022-11-17T20:11:24.203Z,98435.88
2022-11-17T20:13:50.962Z,98441.09
2022-11-17T20:16:20.741Z,98442.56
2022-11-17T20:18:52.573Z,98439.22
2022-11-17T20:21:19.614Z,98442.31
2022-11-17T20:23:47.345Z,98437.22
2022-11-17T20:26:16.719Z,98427.63
2022-11-17T20:28:43.544Z,98444.00
2022-11-17T20:31:21.416Z,98446.50
2022-11-17T20:33:48.847Z,98451.81
2022-11-17T20:36:20.421Z,98445.34
2022-11-17T20:38:59.012Z,98440.66
2022-11-17T20:41:26.410Z,98448.28
2022-11-17T20:43:55.666Z,98446.41
2022-11-17T20:46:23.600Z,98448.81
2022-11-17T20:48:50.557Z,98455.78
2022-11-17T20:51:20.154Z,98448.06
2022-11-17T20:53:47.326Z,98453.09
2022-11-17T20:56:18.341Z,98454.66
2022-11-17T20:58:45.575Z,98451.22
2022-11-17T21:01:15.082Z,98455.50
2022-11-17T21:03:42.572Z,98455.31
2022-11-17T21:06:10.154Z,98454.88
2022-11-17T21:08:38.981Z,98461.97
2022-11-17T21:11:11.873Z,98470.50
2022-11-17T21:13:38.660Z,98469.06
2022-11-17T21:16:11.382Z,98469.34
2022-11-17T21:18:40.067Z,98475.50
2022-11-17T21:21:09.689Z,98486.41
2022-11-17T21:23:38.218Z,98489.44
2022-11-17T21:26:09.296Z,98513.81
2022-11-17T21:28:37.101Z,98507.78
2022-11-17T21:31:10.050Z,98509.53
2022-11-17T21:33:37.112Z,98516.53
2022-11-17T21:36:09.847Z,98530.47
2022-11-17T21:38:37.418Z,98534.75
2022-11-17T21:41:06.116Z,98532.16
2022-11-17T21:43:36.358Z,98541.91
2022-11-17T21:46:15.711Z,98530.84
2022-11-17T21:48:43.164Z,98526.28
2022-11-17T21:51:21.045Z,98537.34
2022-11-17T21:53:52.246Z,98531.41
2022-11-17T21:56:19.147Z,98533.91
2022-11-17T21:58:45.723Z,98537.44
2022-11-17T22:01:14.829Z,98539.22
2022-11-17T22:03:42.982Z,98538.97
2022-11-17T22:06:10.737Z,98530.66
2022-11-17T22:08:39.174Z,98541.38
2022-11-17T22:11:07.659Z,98536.91
2022-11-17T22:13:34.618Z,98538.88
2022-11-17T22:16:10.770Z,98532.94
2022-11-17T22:18:37.939Z,98538.16
2022-11-17T22:21:05.468Z,98535.84
2022-11-17T22:23:32.991Z,98542.06
2022-11-17T22:26:02.541Z,98532.47
2022-11-17T22:28:29.796Z,98542.81
2022-11-17T22:30:56.725Z,98541.22
2022-11-17T22:33:23.590Z,98537.03
2022-11-17T22:35:51.332Z,98539.56
2022-11-17T22:38:18.438Z,98540.47
2022-11-17T22:40:44.957Z,98546.16
2022-11-17T22:43:15.234Z,98541.31
2022-11-17T22:45:42.639Z,98538.81
2022-11-17T22:48:09.604Z,98531.66
2022-11-17T22:50:36.641Z,98523.00
2022-11-17T22:53:03.644Z,98534.34
2022-11-17T22:55:32.662Z,98529.31
2022-11-17T22:57:59.563Z,98527.38
2022-11-17T23:00:26.363Z,98529.78
2022-11-17T23:02:53.058Z,98524.03
2022-11-17T23:05:20.031Z,98519.94
2022-11-17T23:07:46.711Z,98525.34
2022-11-17T23:10:14.168Z,98532.03
2022-11-17T23:12:41.190Z,98526.59
2022-11-17T23:15:08.750Z,98536.06
2022-11-17T23:17:35.910Z,98536.69
2022-11-17T23:20:02.567Z,98540.22
2022-11-17T23:22:29.045Z,98543.66
2022-11-17T23:24:56.179Z,98548.34
2022-11-17T23:27:22.659Z,98537.84
2022-11-17T23:29:50.392Z,98529.84
2022-11-17T23:32:17.107Z,98527.97
2022-11-17T23:34:43.819Z,98538.03
2022-11-17T23:37:11.086Z,98536.34
2022-11-17T23:39:37.571Z,98546.75
2022-11-17T23:42:05.263Z,98545.81
2022-11-17T23:44:32.391Z,98554.78
2022-11-17T23:46:58.849Z,98552.69
2022-11-17T23:49:25.779Z,98551.88
2022-11-17T23:51:52.217Z,98542.19
2022-11-17T23:54:19.270Z,98538.47
2022-11-17T23:56:45.894Z,98542.19
2022-11-17T23:59:12.576Z,98538.84
